Currituck — AEFR — position and weather

sailwx.info

Track history (hours):
 
Tides and Currents Weather Stations Pressure Air Temp Water Temp Dewpoint Dewpoint Depression Visibility Wind Speed Wind Dir Waves Ship Positions

Currituck

Last reported at 2016-Apr-29 12:12 UTC. Time now 2016-Apr-29 19:41 UTC.
Position N 40°06' W 074°02'.

Length 45 m; draft 3 m.

Type: Dredging. MMSI: 369970446.

Date/timePositionNaut miles runAvg speedWind from/ knotsBaromVisibWave heightAir tempDewpointWater temp
2016-Apr-29 12:12N 40°06' W 074°02'1 1.0
2016-Apr-29 11:28N 40°07' W 074°02'  
2016-Apr-25 19:06N 39°59' W 074°02'5 8.5
2016-Apr-25 18:33N 39°54' W 074°02'8 7.9
2016-Apr-25 17:33N 39°46' W 074°05'2 1.9
2016-Apr-25 16:33N 39°46' W 074°07'2 2.2
2016-Apr-25 15:33N 39°48' W 074°09'2 2.2
2016-Apr-25 14:34N 39°46' W 074°07'2 2.2
2016-Apr-25 13:33N 39°48' W 074°09'4 3.8
2016-Apr-25 12:34N 39°45' W 074°05'4 3.8
2016-Apr-25 11:33N 39°48' W 074°09'2 2.2
2016-Apr-25 10:33N 39°46' W 074°07'1 1.3
2016-Apr-25 09:33N 39°45' W 074°07'0 0.0
2016-Apr-25 08:33N 39°45' W 074°07'0 0.0
2016-Apr-25 07:33N 39°45' W 074°07'0 0.0
2016-Apr-25 06:33N 39°45' W 074°07'0 0.0
2016-Apr-25 05:33N 39°45' W 074°07'0 0.0
2016-Apr-25 04:33N 39°45' W 074°07'0 0.0
2016-Apr-25 03:33N 39°45' W 074°07'0 0.0
2016-Apr-25 02:33N 39°45' W 074°07'0 0.0
2016-Apr-25 01:33N 39°45' W 074°07'0 0.0
2016-Apr-25 00:33N 39°45' W 074°07'0 0.0
2016-Apr-24 23:32N 39°45' W 074°07'0 0.0
2016-Apr-24 22:33N 39°45' W 074°07'0 0.0
2016-Apr-24 21:33N 39°45' W 074°07'1 0.8
2016-Apr-24 20:33N 39°46' W 074°06'3 2.9
2016-Apr-24 19:33N 39°47' W 074°09'0 0.1
2016-Apr-24 18:33N 39°48' W 074°09'3 2.8
2016-Apr-24 17:33N 39°46' W 074°06'3 2.8
2016-Apr-24 16:33N 39°48' W 074°09'2 2.4
2016-Apr-24 15:32N 39°46' W 074°07'2 2.0
2016-Apr-24 14:33N 39°48' W 074°08'1 0.8
2016-Apr-24 13:33N 39°48' W 074°09'3 3.1
2016-Apr-24 12:33N 39°45' W 074°07'0 0.0
2016-Apr-24 11:33N 39°45' W 074°07'0 0.0
2016-Apr-24 10:30N 39°45' W 074°07'0 0.0
2016-Apr-24 09:33N 39°45' W 074°07'0 0.0
2016-Apr-24 08:33N 39°45' W 074°07'0 0.0
2016-Apr-24 07:33N 39°45' W 074°07'0 0.0
2016-Apr-24 06:32N 39°45' W 074°07'0 0.0
2016-Apr-24 05:33N 39°45' W 074°07'0 0.0
2016-Apr-24 04:33N 39°45' W 074°07'0 0.0
2016-Apr-24 03:33N 39°45' W 074°07'0 0.0
2016-Apr-24 02:33N 39°45' W 074°07'0 0.0
2016-Apr-24 01:33N 39°45' W 074°07'0 0.0
2016-Apr-24 00:33N 39°45' W 074°07'0 0.0
2016-Apr-23 23:33N 39°45' W 074°07'0 0.0
2016-Apr-23 22:33N 39°45' W 074°07'0 0.0
2016-Apr-23 21:33N 39°45' W 074°07'0 0.0
2016-Apr-23 20:33N 39°45' W 074°07'0 0.0
2016-Apr-23 19:33N 39°45' W 074°07'0 0.0
2016-Apr-23 18:33N 39°45' W 074°07'0 0.0
2016-Apr-23 17:33N 39°45' W 074°07'0 0.0
2016-Apr-23 16:33N 39°45' W 074°07'0 0.0
2016-Apr-23 15:33N 39°45' W 074°07'0 0.0
2016-Apr-23 14:33N 39°45' W 074°07'1 0.6
2016-Apr-23 13:33N 39°46' W 074°07'0 0.2
2016-Apr-23 12:33N 39°46' W 074°07'3 2.4
2016-Apr-23 11:24N 39°48' W 074°09'2 1.9
2016-Apr-23 10:33N 39°47' W 074°07'2 2.2
2016-Apr-23 09:33N 39°45' W 074°07'0 0.0
2016-Apr-23 08:33N 39°45' W 074°07'0 0.0
2016-Apr-23 07:33N 39°45' W 074°07'0 0.0
2016-Apr-23 06:33N 39°45' W 074°07'0 0.0
2016-Apr-23 05:33N 39°45' W 074°07'0 0.0
2016-Apr-23 04:33N 39°45' W 074°07'0 0.0
2016-Apr-23 03:33N 39°45' W 074°07'0 0.0
2016-Apr-23 02:33N 39°45' W 074°07'0 0.0
2016-Apr-23 01:27N 39°45' W 074°07'0 0.0
2016-Apr-23 00:18N 39°45' W 074°07'0 0.0
2016-Apr-22 22:32N 39°45' W 074°07'1 0.7
2016-Apr-22 21:33N 39°46' W 074°07'3 2.8
2016-Apr-22 20:33N 39°48' W 074°09'2 1.8
2016-Apr-22 19:33N 39°47' W 074°07'1 0.7
2016-Apr-22 18:33N 39°46' W 074°07'2 2.2
2016-Apr-22 17:33N 39°48' W 074°09'4 3.8
2016-Apr-22 16:34N 39°45' W 074°05'2 1.6
2016-Apr-22 15:33N 39°46' W 074°07'2 2.2
2016-Apr-22 14:33N 39°48' W 074°09'3 2.8
2016-Apr-22 13:33N 39°46' W 074°07'0 0.3
2016-Apr-22 12:33N 39°46' W 074°06'3 2.9
2016-Apr-22 11:33N 39°47' W 074°10'2 1.7
2016-Apr-22 10:33N 39°47' W 074°07'2 2.1
2016-Apr-22 09:32N 39°45' W 074°07'0 0.0
2016-Apr-22 08:32N 39°45' W 074°07'0 0.0
2016-Apr-22 07:32N 39°45' W 074°07'0 0.0
2016-Apr-22 06:32N 39°45' W 074°07'0 0.0
2016-Apr-22 05:33N 39°45' W 074°07'0 0.0
2016-Apr-22 04:33N 39°45' W 074°07'0 0.0
2016-Apr-22 03:33N 39°45' W 074°07'0 0.0
2016-Apr-22 02:33N 39°45' W 074°07'0 0.0
2016-Apr-22 01:33N 39°45' W 074°07'0 0.0
2016-Apr-22 00:33N 39°45' W 074°07'0 0.0
2016-Apr-21 23:33N 39°45' W 074°07'0 0.0
2016-Apr-21 22:33N 39°45' W 074°07'0 0.4
2016-Apr-21 21:33N 39°45' W 074°07'3 2.8
2016-Apr-21 20:33N 39°47' W 074°10'2 2.0
2016-Apr-21 19:33N 39°47' W 074°07'2 1.7
2016-Apr-21 18:33N 39°48' W 074°09'0 0.2
2016-Apr-21 17:33N 39°48' W 074°09'4 3.7
2016-Apr-21 16:33N 39°45' W 074°06'3 2.6
2016-Apr-21 15:33N 39°47' W 074°07'2 1.6
2016-Apr-21 14:33N 39°48' W 074°09'4 3.7
2016-Apr-21 13:33N 39°45' W 074°06'2 2.3
2016-Apr-21 12:33N 39°47' W 074°07'2 1.8
2016-Apr-21 11:33N 39°48' W 074°09'3 2.7
2016-Apr-21 10:33N 39°46' W 074°07'1 0.5
2016-Apr-21 09:33N 39°45' W 074°07'0 0.0
2016-Apr-21 08:33N 39°45' W 074°07'0 0.0
2016-Apr-21 07:33N 39°45' W 074°07'0 0.0
2016-Apr-21 06:33N 39°45' W 074°07'0 0.0
2016-Apr-21 05:33N 39°45' W 074°07'0 0.0
2016-Apr-21 04:33N 39°45' W 074°07'0 0.0
2016-Apr-21 03:33N 39°45' W 074°07'0 0.0
2016-Apr-21 02:33N 39°45' W 074°07'0 0.0
2016-Apr-21 01:33N 39°45' W 074°07'0 0.0
2016-Apr-21 00:33N 39°45' W 074°07'0 0.0
2016-Apr-20 23:33N 39°45' W 074°07'0 0.0
2016-Apr-20 22:33N 39°45' W 074°07'0 0.0
2016-Apr-20 21:33N 39°45' W 074°07'1 1.1
2016-Apr-20 20:33N 39°46' W 074°06'3 3.3
2016-Apr-20 19:33N 39°48' W 074°09'3 3.1
2016-Apr-20 18:33N 39°45' W 074°07'0 0.0
2016-Apr-20 17:33N 39°45' W 074°07'0 0.0
2016-Apr-20 16:33N 39°45' W 074°07'0 0.0
2016-Apr-20 15:33N 39°45' W 074°07'0 0.0
2016-Apr-20 14:33N 39°45' W 074°07'0 0.0
2016-Apr-20 13:33N 39°45' W 074°07'0 0.0
2016-Apr-20 12:33N 39°45' W 074°07'0 0.0
2016-Apr-20 11:33N 39°45' W 074°07'0 0.0
2016-Apr-20 10:32N 39°45' W 074°07'0 0.0
2016-Apr-20 09:33N 39°45' W 074°07'0 0.0
2016-Apr-20 08:33N 39°45' W 074°07'0 0.0
2016-Apr-20 07:33N 39°45' W 074°07'0 0.0
2016-Apr-20 06:33N 39°45' W 074°07'0 0.0
2016-Apr-20 05:33N 39°45' W 074°07'0 0.0
2016-Apr-20 04:33N 39°45' W 074°07'0 0.0
2016-Apr-20 03:33N 39°45' W 074°07'0 0.0
2016-Apr-20 02:32N 39°45' W 074°07'0 0.0
2016-Apr-20 01:30N 39°45' W 074°07'0 0.0
2016-Apr-20 00:33N 39°45' W 074°07'0 0.0
2016-Apr-19 23:33N 39°45' W 074°07'0 0.0
2016-Apr-19 22:33N 39°45' W 074°07'1 1.1
2016-Apr-19 21:33N 39°46' W 074°06'0 0.0
2016-Apr-19 20:33N 39°46' W 074°06'0 0.2
2016-Apr-19 19:33N 39°45' W 074°05'4 3.7
2016-Apr-19 18:33N 39°47' W 074°09'0 0.5
2016-Apr-19 17:33N 39°48' W 074°09'3 2.9
2016-Apr-19 16:33N 39°45' W 074°07'0 0.0
2016-Apr-19 15:33N 39°45' W 074°07'1 0.6
2016-Apr-19 14:34N 39°46' W 074°07'1 1.3
2016-Apr-19 13:33N 39°45' W 074°06'3 3.4
2016-Apr-19 12:33N 39°47' W 074°08'  
Track history (hours):
 
Tides and Currents Weather Stations Pressure Air Temp Water Temp Dewpoint Dewpoint Depression Visibility Wind Speed Wind Dir Waves Ship Positions

Currituck

Last reported at 2016-Apr-29 12:12 UTC. Time now 2016-Apr-29 19:41 UTC.
Position N 40°06' W 074°02'.

Length 45 m; draft 3 m.

Type: Dredging. MMSI: 369970446.

Date/timePositionNaut miles runAvg speedWind from/ knotsBaromVisibWave heightAir tempDewpointWater temp
2016-Apr-29 12:12N 40°06' W 074°02'1 1.0
2016-Apr-29 11:28N 40°07' W 074°02'  
2016-Apr-25 19:06N 39°59' W 074°02'5 8.5
2016-Apr-25 18:33N 39°54' W 074°02'8 7.9
2016-Apr-25 17:33N 39°46' W 074°05'2 1.9
2016-Apr-25 16:33N 39°46' W 074°07'2 2.2
2016-Apr-25 15:33N 39°48' W 074°09'2 2.2
2016-Apr-25 14:34N 39°46' W 074°07'2 2.2
2016-Apr-25 13:33N 39°48' W 074°09'4 3.8
2016-Apr-25 12:34N 39°45' W 074°05'4 3.8
2016-Apr-25 11:33N 39°48' W 074°09'2 2.2
2016-Apr-25 10:33N 39°46' W 074°07'1 1.3
2016-Apr-25 09:33N 39°45' W 074°07'0 0.0
2016-Apr-25 08:33N 39°45' W 074°07'0 0.0
2016-Apr-25 07:33N 39°45' W 074°07'0 0.0
2016-Apr-25 06:33N 39°45' W 074°07'0 0.0
2016-Apr-25 05:33N 39°45' W 074°07'0 0.0
2016-Apr-25 04:33N 39°45' W 074°07'0 0.0
2016-Apr-25 03:33N 39°45' W 074°07'0 0.0
2016-Apr-25 02:33N 39°45' W 074°07'0 0.0
2016-Apr-25 01:33N 39°45' W 074°07'0 0.0
2016-Apr-25 00:33N 39°45' W 074°07'0 0.0
2016-Apr-24 23:32N 39°45' W 074°07'0 0.0
2016-Apr-24 22:33N 39°45' W 074°07'0 0.0
2016-Apr-24 21:33N 39°45' W 074°07'1 0.8
2016-Apr-24 20:33N 39°46' W 074°06'3 2.9
2016-Apr-24 19:33N 39°47' W 074°09'0 0.1
2016-Apr-24 18:33N 39°48' W 074°09'3 2.8
2016-Apr-24 17:33N 39°46' W 074°06'3 2.8
2016-Apr-24 16:33N 39°48' W 074°09'2 2.4
2016-Apr-24 15:32N 39°46' W 074°07'2 2.0
2016-Apr-24 14:33N 39°48' W 074°08'1 0.8
2016-Apr-24 13:33N 39°48' W 074°09'3 3.1
2016-Apr-24 12:33N 39°45' W 074°07'0 0.0
2016-Apr-24 11:33N 39°45' W 074°07'0 0.0
2016-Apr-24 10:30N 39°45' W 074°07'0 0.0
2016-Apr-24 09:33N 39°45' W 074°07'0 0.0
2016-Apr-24 08:33N 39°45' W 074°07'0 0.0
2016-Apr-24 07:33N 39°45' W 074°07'0 0.0
2016-Apr-24 06:32N 39°45' W 074°07'0 0.0
2016-Apr-24 05:33N 39°45' W 074°07'0 0.0
2016-Apr-24 04:33N 39°45' W 074°07'0 0.0
2016-Apr-24 03:33N 39°45' W 074°07'0 0.0
2016-Apr-24 02:33N 39°45' W 074°07'0 0.0
2016-Apr-24 01:33N 39°45' W 074°07'0 0.0
2016-Apr-24 00:33N 39°45' W 074°07'0 0.0
2016-Apr-23 23:33N 39°45' W 074°07'0 0.0
2016-Apr-23 22:33N 39°45' W 074°07'0 0.0
2016-Apr-23 21:33N 39°45' W 074°07'0 0.0
2016-Apr-23 20:33N 39°45' W 074°07'0 0.0
2016-Apr-23 19:33N 39°45' W 074°07'0 0.0
2016-Apr-23 18:33N 39°45' W 074°07'0 0.0
2016-Apr-23 17:33N 39°45' W 074°07'0 0.0
2016-Apr-23 16:33N 39°45' W 074°07'0 0.0
2016-Apr-23 15:33N 39°45' W 074°07'0 0.0
2016-Apr-23 14:33N 39°45' W 074°07'1 0.6
2016-Apr-23 13:33N 39°46' W 074°07'0 0.2
2016-Apr-23 12:33N 39°46' W 074°07'3 2.4
2016-Apr-23 11:24N 39°48' W 074°09'2 1.9
2016-Apr-23 10:33N 39°47' W 074°07'2 2.2
2016-Apr-23 09:33N 39°45' W 074°07'0 0.0
2016-Apr-23 08:33N 39°45' W 074°07'0 0.0
2016-Apr-23 07:33N 39°45' W 074°07'0 0.0
2016-Apr-23 06:33N 39°45' W 074°07'0 0.0
2016-Apr-23 05:33N 39°45' W 074°07'0 0.0
2016-Apr-23 04:33N 39°45' W 074°07'0 0.0
2016-Apr-23 03:33N 39°45' W 074°07'0 0.0
2016-Apr-23 02:33N 39°45' W 074°07'0 0.0
2016-Apr-23 01:27N 39°45' W 074°07'0 0.0
2016-Apr-23 00:18N 39°45' W 074°07'0 0.0
2016-Apr-22 22:32N 39°45' W 074°07'1 0.7
2016-Apr-22 21:33N 39°46' W 074°07'3 2.8
2016-Apr-22 20:33N 39°48' W 074°09'2 1.8
2016-Apr-22 19:33N 39°47' W 074°07'1 0.7
2016-Apr-22 18:33N 39°46' W 074°07'2 2.2
2016-Apr-22 17:33N 39°48' W 074°09'4 3.8
2016-Apr-22 16:34N 39°45' W 074°05'2 1.6
2016-Apr-22 15:33N 39°46' W 074°07'2 2.2
2016-Apr-22 14:33N 39°48' W 074°09'3 2.8
2016-Apr-22 13:33N 39°46' W 074°07'0 0.3
2016-Apr-22 12:33N 39°46' W 074°06'3 2.9
2016-Apr-22 11:33N 39°47' W 074°10'2 1.7
2016-Apr-22 10:33N 39°47' W 074°07'2 2.1
2016-Apr-22 09:32N 39°45' W 074°07'0 0.0
2016-Apr-22 08:32N 39°45' W 074°07'0 0.0
2016-Apr-22 07:32N 39°45' W 074°07'0 0.0
2016-Apr-22 06:32N 39°45' W 074°07'0 0.0
2016-Apr-22 05:33N 39°45' W 074°07'0 0.0
2016-Apr-22 04:33N 39°45' W 074°07'0 0.0
2016-Apr-22 03:33N 39°45' W 074°07'0 0.0
2016-Apr-22 02:33N 39°45' W 074°07'0 0.0
2016-Apr-22 01:33N 39°45' W 074°07'0 0.0
2016-Apr-22 00:33N 39°45' W 074°07'0 0.0
2016-Apr-21 23:33N 39°45' W 074°07'0 0.0
2016-Apr-21 22:33N 39°45' W 074°07'0 0.4
2016-Apr-21 21:33N 39°45' W 074°07'3 2.8
2016-Apr-21 20:33N 39°47' W 074°10'2 2.0
2016-Apr-21 19:33N 39°47' W 074°07'2 1.7
2016-Apr-21 18:33N 39°48' W 074°09'0 0.2
2016-Apr-21 17:33N 39°48' W 074°09'4 3.7
2016-Apr-21 16:33N 39°45' W 074°06'3 2.6
2016-Apr-21 15:33N 39°47' W 074°07'2 1.6
2016-Apr-21 14:33N 39°48' W 074°09'4 3.7
2016-Apr-21 13:33N 39°45' W 074°06'2 2.3
2016-Apr-21 12:33N 39°47' W 074°07'2 1.8
2016-Apr-21 11:33N 39°48' W 074°09'3 2.7
2016-Apr-21 10:33N 39°46' W 074°07'1 0.5
2016-Apr-21 09:33N 39°45' W 074°07'0 0.0
2016-Apr-21 08:33N 39°45' W 074°07'0 0.0
2016-Apr-21 07:33N 39°45' W 074°07'0 0.0
2016-Apr-21 06:33N 39°45' W 074°07'0 0.0
2016-Apr-21 05:33N 39°45' W 074°07'0 0.0
2016-Apr-21 04:33N 39°45' W 074°07'0 0.0
2016-Apr-21 03:33N 39°45' W 074°07'0 0.0
2016-Apr-21 02:33N 39°45' W 074°07'0 0.0
2016-Apr-21 01:33N 39°45' W 074°07'0 0.0
2016-Apr-21 00:33N 39°45' W 074°07'0 0.0
2016-Apr-20 23:33N 39°45' W 074°07'0 0.0
2016-Apr-20 22:33N 39°45' W 074°07'0 0.0
2016-Apr-20 21:33N 39°45' W 074°07'1 1.1
2016-Apr-20 20:33N 39°46' W 074°06'3 3.3
2016-Apr-20 19:33N 39°48' W 074°09'3 3.1
2016-Apr-20 18:33N 39°45' W 074°07'0 0.0
2016-Apr-20 17:33N 39°45' W 074°07'0 0.0
2016-Apr-20 16:33N 39°45' W 074°07'0 0.0
2016-Apr-20 15:33N 39°45' W 074°07'0 0.0
2016-Apr-20 14:33N 39°45' W 074°07'0 0.0
2016-Apr-20 13:33N 39°45' W 074°07'0 0.0
2016-Apr-20 12:33N 39°45' W 074°07'0 0.0
2016-Apr-20 11:33N 39°45' W 074°07'0 0.0
2016-Apr-20 10:32N 39°45' W 074°07'0 0.0
2016-Apr-20 09:33N 39°45' W 074°07'0 0.0
2016-Apr-20 08:33N 39°45' W 074°07'0 0.0
2016-Apr-20 07:33N 39°45' W 074°07'0 0.0
2016-Apr-20 06:33N 39°45' W 074°07'0 0.0
2016-Apr-20 05:33N 39°45' W 074°07'0 0.0
2016-Apr-20 04:33N 39°45' W 074°07'0 0.0
2016-Apr-20 03:33N 39°45' W 074°07'0 0.0
2016-Apr-20 02:32N 39°45' W 074°07'0 0.0
2016-Apr-20 01:30N 39°45' W 074°07'0 0.0
2016-Apr-20 00:33N 39°45' W 074°07'0 0.0
2016-Apr-19 23:33N 39°45' W 074°07'0 0.0
2016-Apr-19 22:33N 39°45' W 074°07'1 1.1
2016-Apr-19 21:33N 39°46' W 074°06'0 0.0
2016-Apr-19 20:33N 39°46' W 074°06'0 0.2
2016-Apr-19 19:33N 39°45' W 074°05'4 3.7
2016-Apr-19 18:33N 39°47' W 074°09'0 0.5
2016-Apr-19 17:33N 39°48' W 074°09'3 2.9
2016-Apr-19 16:33N 39°45' W 074°07'0 0.0
2016-Apr-19 15:33N 39°45' W 074°07'1 0.6
2016-Apr-19 14:34N 39°46' W 074°07'1 1.3
2016-Apr-19 13:33N 39°45' W 074°06'3 3.4
2016-Apr-19 12:33N 39°47' W 074°08'  

Dump ship's entire track history